KOVE

Details ICAO KOVE
Name Oroville Muni
Region United States
Timezone America/Los_Angeles (UTC-8.0)
Plans Departing 1
Arriving 1
Stats Elevation 192 ft / 59 m (AMSL)
Location 39.488531° -121.620578°
Runways 2
Magnetic Variation 13.749° E
Sunrise 2017-12-18 15:23:09 UTC / 2017-12-18 07:23:09 Local
Sunset 2017-12-19 00:46:03 UTC / 2017-12-18 16:46:03 Local
Advertisement - Login to hide

Runways

ID Width Length Bearing (true) Bearing (mag) Surface Threshold Offset Overrun Length
01 100 ft / 30 m 6,024 ft / 1,836 m 32.87° 19.12° Asphalt 0 ft / 0 m 100 ft / 30 m
12 100 ft / 30 m 3,541 ft / 1,079 m 143.87° 130.12° Asphalt 0 ft / 0 m 500 ft / 152 m
19 100 ft / 30 m 6,024 ft / 1,836 m 212.88° 199.13° Asphalt 0 ft / 0 m 1,600 ft / 488 m
30 100 ft / 30 m 3,541 ft / 1,079 m 323.88° 310.13° Asphalt 0 ft / 0 m 0 ft / 0 m

Map

Weather


0- 5 10 15 20 25 30 35+ Temperature / ° C

Clouds and Precipitation
Forecast for 2017-12-18 12:00 UTC. Updated 2 hours ago

Ground ~20,000 ft ~40,000 ft Winds

METAR

KOVE 181053Z AUTO 08007KT 10SM CLR 07/03 A3019 RMK AO2 SLP225 T00720028

TAF

Not found

Frequencies

Recorded 121.42 MHz ASOS
Approach 125.40 MHz NORCAL APP/DEP
Unicom 122.80 MHz CTAF/UNICOM
Warning: Do not use this data for real-world aviation or navigation. No guarantee of current accuracy is given.